createdAt,value
2023-06-21T00:00:54.018Z,0.00
2023-06-21T00:01:53.976Z,0.00
2023-06-21T00:03:00.128Z,0.00
2023-06-21T00:03:53.969Z,0.00
2023-06-21T00:04:53.968Z,0.00
2023-06-21T00:05:53.950Z,0.00
2023-06-21T00:06:53.921Z,0.00
2023-06-21T00:07:53.913Z,0.00
2023-06-21T00:08:53.900Z,0.00
2023-06-21T00:09:53.900Z,0.00
2023-06-21T00:10:53.878Z,0.00
2023-06-21T00:11:53.851Z,0.00
2023-06-21T00:12:53.877Z,0.00
2023-06-21T00:13:53.854Z,0.00
2023-06-21T00:14:53.828Z,0.00
2023-06-21T00:15:53.803Z,0.00
2023-06-21T00:16:53.791Z,0.00
2023-06-21T00:17:53.809Z,0.00
2023-06-21T00:18:53.797Z,0.00
2023-06-21T00:19:53.749Z,0.00
2023-06-21T00:20:53.746Z,0.00
2023-06-21T00:21:53.720Z,0.00
2023-06-21T00:22:53.711Z,0.00
2023-06-21T00:23:53.716Z,0.00
2023-06-21T00:24:53.737Z,0.00
2023-06-21T00:25:53.665Z,0.00
2023-06-21T00:26:53.670Z,0.00
2023-06-21T00:27:53.670Z,0.00
2023-06-21T00:28:53.636Z,0.00
2023-06-21T00:29:53.643Z,0.00
2023-06-21T00:30:53.653Z,0.00
2023-06-21T00:31:53.586Z,0.00
2023-06-21T00:32:53.636Z,0.00
2023-06-21T00:33:53.562Z,0.00
2023-06-21T00:34:53.571Z,0.00
2023-06-21T00:35:53.556Z,0.00
2023-06-21T00:36:53.529Z,0.00
2023-06-21T00:37:53.513Z,0.00
2023-06-21T00:38:53.500Z,0.00
2023-06-21T00:39:53.606Z,0.00
2023-06-21T00:40:53.471Z,0.00
2023-06-21T00:41:53.592Z,0.00
2023-06-21T00:42:53.548Z,0.00
2023-06-21T00:43:53.422Z,0.00
2023-06-21T00:44:53.427Z,0.00
2023-06-21T00:45:53.394Z,0.00
2023-06-21T00:46:53.570Z,0.00
2023-06-21T00:47:53.433Z,0.00
2023-06-21T00:48:53.416Z,0.00
2023-06-21T00:49:53.355Z,0.00
2023-06-21T00:50:53.342Z,0.00
2023-06-21T00:51:53.342Z,0.00
2023-06-21T00:52:53.310Z,0.00
2023-06-21T00:53:53.306Z,0.00
2023-06-21T00:54:54.156Z,0.00
2023-06-21T00:55:53.303Z,0.00
2023-06-21T00:56:53.298Z,0.00
2023-06-21T00:57:53.245Z,0.00
2023-06-21T00:58:53.227Z,0.00
2023-06-21T00:59:53.213Z,0.00
2023-06-21T01:00:53.230Z,0.00
2023-06-21T01:01:53.202Z,0.00
2023-06-21T01:02:53.217Z,0.00
2023-06-21T01:03:53.154Z,0.00
2023-06-21T01:04:53.217Z,0.00
2023-06-21T01:05:53.188Z,0.00
2023-06-21T01:06:53.128Z,0.00
2023-06-21T01:07:53.158Z,0.00
2023-06-21T01:08:53.124Z,0.00
2023-06-21T01:09:53.085Z,0.00
2023-06-21T01:10:53.085Z,0.00
2023-06-21T01:11:53.086Z,0.00
2023-06-21T01:12:53.130Z,0.00
2023-06-21T01:13:53.044Z,0.00
2023-06-21T01:14:53.019Z,0.00
2023-06-21T01:15:53.014Z,0.00
2023-06-21T01:16:53.105Z,0.00
2023-06-21T01:17:52.991Z,0.00
2023-06-21T01:18:53.015Z,0.00
2023-06-21T01:19:52.995Z,0.00
2023-06-21T01:20:52.954Z,0.00
2023-06-21T01:21:52.931Z,0.00
2023-06-21T01:22:52.916Z,0.00
2023-06-21T01:23:52.939Z,0.00
2023-06-21T01:24:52.895Z,0.00
2023-06-21T01:25:52.869Z,0.00
2023-06-21T01:26:52.882Z,0.00
2023-06-21T01:27:53.471Z,0.00
2023-06-21T01:28:52.887Z,0.00
2023-06-21T01:29:52.836Z,0.00
2023-06-21T01:30:52.807Z,0.00
2023-06-21T01:31:52.924Z,0.00
2023-06-21T01:32:53.186Z,0.00
2023-06-21T01:33:52.796Z,0.00
2023-06-21T01:34:52.771Z,0.00
2023-06-21T01:35:52.747Z,0.00
2023-06-21T01:36:52.745Z,0.00
2023-06-21T01:37:52.770Z,0.00
2023-06-21T01:38:52.710Z,0.00
2023-06-21T01:39:52.714Z,0.00
2023-06-21T01:40:52.679Z,0.00
2023-06-21T01:41:52.673Z,0.00
2023-06-21T01:42:52.673Z,0.00
2023-06-21T01:43:52.652Z,0.00
2023-06-21T01:44:52.644Z,0.00
2023-06-21T01:45:52.646Z,0.00
2023-06-21T01:46:52.941Z,0.00
2023-06-21T01:47:52.658Z,0.00
2023-06-21T01:48:52.586Z,0.00
2023-06-21T01:49:52.559Z,0.00
2023-06-21T01:50:52.553Z,0.00
2023-06-21T01:51:52.550Z,0.00
2023-06-21T01:52:52.525Z,0.00
2023-06-21T01:53:52.512Z,0.00
2023-06-21T01:54:52.523Z,0.00
2023-06-21T01:55:52.512Z,0.00
2023-06-21T01:56:52.508Z,0.00
2023-06-21T01:57:52.466Z,0.00
2023-06-21T01:58:52.445Z,0.00
2023-06-21T01:59:52.421Z,0.00
2023-06-21T02:00:52.457Z,0.00
2023-06-21T02:01:52.425Z,0.00
2023-06-21T02:02:52.502Z,0.00
2023-06-21T02:03:52.388Z,0.00
2023-06-21T02:04:52.425Z,0.00
2023-06-21T02:05:52.401Z,0.00
2023-06-21T02:06:52.352Z,0.00
2023-06-21T02:07:52.330Z,0.00
2023-06-21T02:08:52.327Z,0.00
2023-06-21T02:09:52.302Z,0.00
2023-06-21T02:10:52.319Z,0.00
2023-06-21T02:11:52.293Z,0.00
2023-06-21T02:12:52.278Z,0.00
2023-06-21T02:13:52.257Z,0.00
2023-06-21T02:14:52.254Z,0.00
2023-06-21T02:15:52.235Z,0.00
2023-06-21T02:16:52.238Z,0.00
2023-06-21T02:17:52.278Z,0.00
2023-06-21T02:18:52.183Z,0.00
2023-06-21T02:19:52.674Z,0.00
2023-06-21T02:20:52.171Z,0.00
2023-06-21T02:21:52.160Z,0.00
2023-06-21T02:22:52.138Z,0.00
2023-06-21T02:23:52.152Z,0.00
2023-06-21T02:24:52.110Z,0.00
2023-06-21T02:25:52.125Z,0.00
2023-06-21T02:26:52.078Z,0.00
2023-06-21T02:27:52.087Z,0.00
2023-06-21T02:28:52.097Z,0.00
2023-06-21T02:29:52.067Z,0.00
2023-06-21T02:30:52.039Z,0.00
2023-06-21T02:31:52.037Z,0.00
2023-06-21T02:32:52.070Z,0.00
2023-06-21T02:33:52.039Z,0.00
2023-06-21T02:34:51.985Z,0.00
2023-06-21T02:35:51.976Z,0.00
2023-06-21T02:36:51.963Z,0.00
2023-06-21T02:37:51.981Z,0.00
2023-06-21T02:38:51.930Z,0.00
2023-06-21T02:39:51.933Z,0.00
2023-06-21T02:40:51.909Z,0.00
2023-06-21T02:41:51.886Z,0.00
2023-06-21T02:42:51.926Z,0.00
2023-06-21T02:43:51.871Z,0.00
2023-06-21T02:44:51.854Z,0.00
2023-06-21T02:45:51.849Z,0.00
2023-06-21T02:46:51.979Z,0.00
2023-06-21T02:47:51.857Z,0.00
2023-06-21T02:48:51.812Z,0.00
2023-06-21T02:49:51.792Z,0.00
2023-06-21T02:50:52.053Z,0.00
2023-06-21T02:51:51.782Z,0.00
2023-06-21T02:52:51.729Z,0.00
2023-06-21T02:53:51.733Z,0.00
2023-06-21T02:54:51.731Z,0.00
2023-06-21T02:55:51.699Z,0.00
2023-06-21T02:56:51.668Z,1.00
2023-06-21T02:57:51.691Z,0.00
2023-06-21T02:58:51.656Z,0.00
2023-06-21T02:59:51.670Z,0.00
2023-06-21T03:00:51.697Z,0.00
2023-06-21T03:01:51.641Z,0.00
2023-06-21T03:02:51.770Z,0.00
2023-06-21T03:03:51.677Z,0.00
2023-06-21T03:04:51.576Z,0.00
2023-06-21T03:05:51.619Z,0.00
2023-06-21T03:06:51.588Z,0.00
2023-06-21T03:07:51.562Z,0.00
2023-06-21T03:08:51.493Z,2.00
2023-06-21T03:09:51.465Z,1.00
2023-06-21T03:10:51.468Z,1.00
2023-06-21T03:11:51.432Z,1.00
2023-06-21T03:12:51.443Z,1.00
2023-06-21T03:13:51.420Z,1.00
2023-06-21T03:14:51.422Z,1.00
2023-06-21T03:15:51.449Z,1.00
2023-06-21T03:16:51.388Z,1.00
2023-06-21T03:17:51.385Z,1.00
2023-06-21T03:18:51.393Z,1.00
2023-06-21T03:19:51.394Z,2.00
2023-06-21T03:20:51.351Z,2.00
2023-06-21T03:21:51.319Z,2.00
2023-06-21T03:22:51.284Z,2.00
2023-06-21T03:23:51.305Z,3.00
2023-06-21T03:24:51.308Z,2.00
2023-06-21T03:25:51.275Z,2.00
2023-06-21T03:26:51.239Z,3.00
2023-06-21T03:27:51.259Z,2.00
2023-06-21T03:28:51.244Z,3.00
2023-06-21T03:29:51.218Z,3.00
2023-06-21T03:30:51.192Z,4.00
2023-06-21T03:31:51.236Z,5.00
2023-06-21T03:32:51.590Z,5.00
2023-06-21T03:33:51.187Z,5.00
2023-06-21T03:34:51.127Z,5.00
2023-06-21T03:35:51.127Z,6.00
2023-06-21T03:36:51.107Z,6.00
2023-06-21T03:37:51.103Z,6.00
2023-06-21T03:38:51.120Z,7.00
2023-06-21T03:39:51.119Z,8.00
2023-06-21T03:40:51.048Z,7.00
2023-06-21T03:41:51.062Z,8.00
2023-06-21T03:42:51.074Z,8.00
2023-06-21T03:43:51.033Z,9.00
2023-06-21T03:44:51.022Z,10.00
2023-06-21T03:45:51.050Z,10.00
2023-06-21T03:46:50.966Z,11.00
2023-06-21T03:47:51.023Z,11.00
2023-06-21T03:48:51.016Z,11.00
2023-06-21T03:49:50.922Z,11.00
2023-06-21T03:50:50.912Z,11.00
2023-06-21T03:51:50.946Z,12.00
2023-06-21T03:52:52.656Z,13.00
2023-06-21T03:53:50.883Z,14.00
2023-06-21T03:54:50.866Z,15.00
2023-06-21T03:55:50.871Z,16.00
2023-06-21T03:56:50.879Z,16.00
2023-06-21T03:57:50.824Z,17.00
2023-06-21T03:58:50.840Z,17.00
2023-06-21T03:59:50.814Z,17.00
2023-06-21T04:00:50.814Z,17.00
2023-06-21T04:01:50.798Z,17.00
2023-06-21T04:02:50.832Z,16.00
2023-06-21T04:03:50.790Z,16.00
2023-06-21T04:04:50.732Z,16.00
2023-06-21T04:05:50.776Z,17.00
2023-06-21T04:06:50.715Z,17.00
2023-06-21T04:07:50.714Z,17.00
2023-06-21T04:08:50.684Z,17.00
2023-06-21T04:09:50.676Z,17.00
2023-06-21T04:10:50.670Z,17.00
2023-06-21T04:11:50.650Z,17.00
2023-06-21T04:12:50.651Z,17.00
2023-06-21T04:13:51.318Z,17.00
2023-06-21T04:14:50.623Z,17.00
2023-06-21T04:15:50.633Z,18.00
2023-06-21T04:16:50.581Z,18.00
2023-06-21T04:17:50.704Z,18.00
2023-06-21T04:18:50.576Z,19.00
2023-06-21T04:19:50.562Z,20.00
2023-06-21T04:20:50.553Z,19.00
2023-06-21T04:21:50.514Z,20.00
2023-06-21T04:22:50.508Z,19.00
2023-06-21T04:23:50.524Z,18.00
2023-06-21T04:24:50.503Z,18.00
2023-06-21T04:25:50.467Z,17.00
2023-06-21T04:26:50.443Z,18.00
2023-06-21T04:27:50.463Z,16.00
2023-06-21T04:28:50.436Z,14.00
2023-06-21T04:29:50.437Z,15.00
2023-06-21T04:30:50.400Z,15.00
2023-06-21T04:31:50.484Z,17.00
2023-06-21T04:32:50.392Z,20.00
2023-06-21T04:33:50.394Z,23.00
2023-06-21T04:34:50.352Z,22.00
2023-06-21T04:35:50.328Z,22.00
2023-06-21T04:36:50.341Z,21.00
2023-06-21T04:37:50.307Z,21.00
2023-06-21T04:38:50.313Z,21.00
2023-06-21T04:39:52.386Z,22.00
2023-06-21T04:40:50.268Z,22.00
2023-06-21T04:41:50.283Z,21.00
2023-06-21T04:42:50.248Z,20.00
2023-06-21T04:43:50.273Z,20.00
2023-06-21T04:44:50.214Z,20.00
2023-06-21T04:45:50.223Z,21.00
2023-06-21T04:46:50.187Z,23.00
2023-06-21T04:47:50.292Z,27.00
2023-06-21T04:48:50.150Z,31.00
2023-06-21T04:49:50.149Z,33.00
2023-06-21T04:50:50.138Z,35.00
2023-06-21T04:51:50.133Z,38.00
2023-06-21T04:52:50.935Z,39.00
2023-06-21T04:53:50.209Z,41.00
2023-06-21T04:54:50.082Z,40.00
2023-06-21T04:55:50.070Z,40.00
2023-06-21T04:56:50.078Z,41.00
2023-06-21T04:57:50.232Z,40.00
2023-06-21T04:58:50.032Z,42.00
2023-06-21T04:59:50.017Z,44.00
2023-06-21T05:00:50.002Z,46.00
2023-06-21T05:01:50.080Z,46.00
2023-06-21T05:02:50.186Z,47.00
2023-06-21T05:03:50.011Z,48.00
2023-06-21T05:04:49.970Z,49.00
2023-06-21T05:05:49.941Z,51.00
2023-06-21T05:06:49.949Z,53.00
2023-06-21T05:07:49.935Z,54.00
2023-06-21T05:08:49.894Z,58.00
2023-06-21T05:09:49.894Z,62.00
2023-06-21T05:10:49.903Z,65.00
2023-06-21T05:11:49.869Z,66.00
2023-06-21T05:12:49.844Z,66.00
2023-06-21T05:13:49.868Z,65.00
2023-06-21T05:14:50.110Z,62.00
2023-06-21T05:15:49.822Z,61.00
2023-06-21T05:16:49.844Z,62.00
2023-06-21T05:17:49.883Z,65.00
2023-06-21T05:18:49.837Z,67.00
2023-06-21T05:19:49.805Z,65.00
2023-06-21T05:20:49.879Z,64.00
2023-06-21T05:21:49.723Z,64.00
2023-06-21T05:22:49.707Z,63.00
2023-06-21T05:23:49.712Z,67.00
2023-06-21T05:24:49.789Z,77.00
2023-06-21T05:25:49.688Z,83.00
2023-06-21T05:26:49.653Z,84.00
2023-06-21T05:27:49.668Z,83.00
2023-06-21T05:28:49.649Z,83.00
2023-06-21T05:29:49.637Z,87.00
2023-06-21T05:30:49.622Z,98.00
2023-06-21T05:31:49.603Z,96.00
2023-06-21T05:32:49.587Z,91.00
2023-06-21T05:33:49.595Z,87.00
2023-06-21T05:34:49.570Z,88.00
2023-06-21T05:35:49.540Z,89.00
2023-06-21T05:36:49.536Z,94.00
2023-06-21T05:37:49.522Z,92.00
2023-06-21T05:38:49.518Z,89.00
2023-06-21T05:39:49.552Z,92.00
2023-06-21T05:40:49.468Z,90.00
2023-06-21T05:41:49.467Z,83.00
2023-06-21T05:42:49.448Z,79.00
2023-06-21T05:43:49.472Z,74.00
2023-06-21T05:44:49.414Z,73.00
2023-06-21T05:45:49.499Z,72.00
2023-06-21T05:46:49.408Z,74.00
2023-06-21T05:47:49.422Z,72.00
2023-06-21T05:48:49.405Z,70.00
2023-06-21T05:49:49.381Z,69.00
2023-06-21T05:50:49.348Z,68.00
2023-06-21T05:51:49.332Z,67.00
2023-06-21T05:52:50.064Z,64.00
2023-06-21T05:53:49.333Z,62.00
2023-06-21T05:54:49.303Z,60.00
2023-06-21T05:55:49.299Z,60.00
2023-06-21T05:56:49.297Z,64.00
2023-06-21T05:57:49.300Z,69.00
2023-06-21T05:58:49.251Z,73.00
2023-06-21T05:59:49.245Z,76.00
2023-06-21T06:00:49.223Z,78.00
2023-06-21T06:01:49.291Z,84.00
2023-06-21T06:02:55.307Z,89.00
2023-06-21T06:03:49.199Z,90.00
2023-06-21T06:04:49.862Z,85.00
2023-06-21T06:05:49.169Z,81.00
2023-06-21T06:06:49.161Z,80.00
2023-06-21T06:07:49.181Z,79.00
2023-06-21T06:08:49.122Z,76.00
2023-06-21T06:09:49.108Z,71.00
2023-06-21T06:10:49.098Z,64.00
2023-06-21T06:11:49.114Z,63.00
2023-06-21T06:12:49.078Z,66.00
2023-06-21T06:13:49.061Z,67.00
2023-06-21T06:14:49.042Z,64.00
2023-06-21T06:15:49.025Z,63.00
2023-06-21T06:16:49.039Z,64.00
2023-06-21T06:17:49.076Z,63.00
2023-06-21T06:18:48.994Z,62.00
2023-06-21T06:19:48.983Z,63.00
2023-06-21T06:20:50.522Z,67.00
2023-06-21T06:21:48.974Z,72.00
2023-06-21T06:22:48.950Z,76.00
2023-06-21T06:23:48.945Z,80.00
2023-06-21T06:24:48.901Z,89.00
2023-06-21T06:25:48.947Z,89.00
2023-06-21T06:26:48.989Z,87.00
2023-06-21T06:27:48.986Z,97.00
2023-06-21T06:28:48.943Z,109.00
2023-06-21T06:29:48.902Z,110.00
2023-06-21T06:30:48.896Z,118.00
2023-06-21T06:31:50.514Z,135.00
2023-06-21T06:32:48.972Z,145.00
2023-06-21T06:33:48.805Z,146.00
2023-06-21T06:34:48.806Z,152.00
2023-06-21T06:35:48.884Z,153.00
2023-06-21T06:36:56.523Z,152.00
2023-06-21T06:37:48.756Z,150.00
2023-06-21T06:38:48.743Z,132.00
2023-06-21T06:39:48.731Z,118.00
2023-06-21T06:40:48.708Z,103.00
2023-06-21T06:41:48.686Z,86.00
2023-06-21T06:42:48.694Z,78.00
2023-06-21T06:43:48.658Z,74.00
2023-06-21T06:44:48.673Z,74.00
2023-06-21T06:45:48.630Z,76.00
2023-06-21T06:46:48.634Z,81.00
2023-06-21T06:47:48.706Z,82.00
2023-06-21T06:48:48.638Z,80.00
2023-06-21T06:49:48.629Z,77.00
2023-06-21T06:50:48.596Z,79.00
2023-06-21T06:51:48.565Z,85.00
2023-06-21T06:52:48.553Z,94.00
2023-06-21T06:53:48.556Z,101.00
2023-06-21T06:54:48.527Z,112.00
2023-06-21T06:55:48.529Z,121.00
2023-06-21T06:56:48.494Z,116.00
2023-06-21T06:58:00.455Z,115.00
2023-06-21T06:58:48.505Z,112.00
2023-06-21T06:59:48.519Z,110.00
2023-06-21T07:00:48.457Z,123.00
2023-06-21T07:01:48.439Z,142.00
2023-06-21T07:02:48.490Z,142.00
2023-06-21T07:03:48.615Z,128.00
2023-06-21T07:04:48.474Z,111.00
2023-06-21T07:05:48.412Z,100.00
2023-06-21T07:06:48.370Z,93.00
2023-06-21T07:07:48.403Z,88.00
2023-06-21T07:08:48.374Z,84.00
2023-06-21T07:09:48.344Z,81.00
2023-06-21T07:10:48.315Z,79.00
2023-06-21T07:11:48.319Z,87.00
2023-06-21T07:12:48.346Z,106.00
2023-06-21T07:13:48.270Z,123.00
2023-06-21T07:14:48.269Z,128.00
2023-06-21T07:15:48.255Z,123.00
2023-06-21T07:16:48.293Z,119.00
2023-06-21T07:17:48.322Z,122.00
2023-06-21T07:18:48.249Z,132.00
2023-06-21T07:19:48.198Z,138.00
2023-06-21T07:20:48.227Z,133.00
2023-06-21T07:21:48.224Z,135.00
2023-06-21T07:22:48.180Z,143.00
2023-06-21T07:23:48.225Z,136.00
2023-06-21T07:24:48.130Z,125.00
2023-06-21T07:25:48.127Z,127.00
2023-06-21T07:26:48.171Z,122.00
2023-06-21T07:27:48.123Z,123.00
2023-06-21T07:28:48.133Z,131.00
2023-06-21T07:29:48.097Z,129.00
2023-06-21T07:30:48.104Z,117.00
2023-06-21T07:31:48.082Z,106.00
2023-06-21T07:32:48.071Z,95.00
2023-06-21T07:33:48.015Z,92.00
2023-06-21T07:34:47.999Z,96.00
2023-06-21T07:35:48.379Z,104.00
2023-06-21T07:36:47.974Z,116.00
2023-06-21T07:37:47.978Z,134.00
2023-06-21T07:38:48.574Z,153.00
2023-06-21T07:39:54.666Z,166.00
2023-06-21T07:40:47.988Z,164.00
2023-06-21T07:41:48.207Z,160.00
2023-06-21T07:42:47.905Z,175.00
2023-06-21T07:43:47.885Z,188.00
2023-06-21T07:44:47.930Z,179.00
2023-06-21T07:45:47.867Z,164.00
2023-06-21T07:46:47.877Z,150.00
2023-06-21T07:47:47.836Z,142.00
2023-06-21T07:48:47.825Z,148.00
2023-06-21T07:49:47.820Z,146.00
2023-06-21T07:50:47.790Z,135.00
2023-06-21T07:51:47.778Z,114.00
2023-06-21T07:52:47.800Z,101.00
2023-06-21T07:53:47.758Z,116.00
2023-06-21T07:54:47.794Z,129.00
2023-06-21T07:55:47.716Z,110.00
2023-06-21T07:56:47.712Z,103.00
2023-06-21T07:57:47.694Z,102.00
2023-06-21T07:58:47.733Z,106.00
2023-06-21T07:59:47.695Z,107.00
2023-06-21T08:00:47.673Z,115.00
2023-06-21T08:01:47.661Z,136.00
2023-06-21T08:02:47.719Z,171.00
2023-06-21T08:03:47.686Z,204.00
2023-06-21T08:04:47.613Z,194.00
2023-06-21T08:05:47.586Z,198.00
2023-06-21T08:06:47.618Z,204.00
2023-06-21T08:07:47.594Z,191.00
2023-06-21T08:08:47.580Z,197.00
2023-06-21T08:09:47.535Z,195.00
2023-06-21T08:10:47.590Z,204.00
2023-06-21T08:11:47.522Z,214.00
2023-06-21T08:12:47.530Z,225.00
2023-06-21T08:13:47.508Z,227.00
2023-06-21T08:14:47.501Z,197.00
2023-06-21T08:15:47.494Z,176.00
2023-06-21T08:16:47.457Z,191.00
2023-06-21T08:17:47.526Z,212.00
2023-06-21T08:18:47.444Z,194.00
2023-06-21T08:19:47.408Z,143.00
2023-06-21T08:20:47.406Z,141.00
2023-06-21T08:21:47.406Z,141.00
2023-06-21T08:22:47.418Z,142.00
2023-06-21T08:23:47.371Z,136.00
2023-06-21T08:24:47.365Z,127.00
2023-06-21T08:25:47.346Z,116.00
2023-06-21T08:26:47.348Z,99.00
2023-06-21T08:27:47.375Z,88.00
2023-06-21T08:28:47.334Z,85.00
2023-06-21T08:29:47.307Z,87.00
2023-06-21T08:30:47.309Z,95.00
2023-06-21T08:31:47.410Z,105.00
2023-06-21T08:32:47.385Z,117.00
2023-06-21T08:33:47.242Z,134.00
2023-06-21T08:34:47.242Z,159.00
2023-06-21T08:35:47.245Z,158.00
2023-06-21T08:36:47.401Z,123.00
2023-06-21T08:37:47.222Z,125.00
2023-06-21T08:38:47.178Z,136.00
2023-06-21T08:39:47.196Z,143.00
2023-06-21T08:40:47.202Z,156.00
2023-06-21T08:41:47.137Z,172.00
2023-06-21T08:42:47.121Z,196.00
2023-06-21T08:43:47.123Z,442.00
2023-06-21T08:44:47.100Z,468.00
2023-06-21T08:45:47.162Z,895.00
2023-06-21T08:46:47.108Z,263.00
2023-06-21T08:47:47.095Z,377.00
2023-06-21T08:48:47.068Z,1178.00
2023-06-21T08:49:47.065Z,146.00
2023-06-21T08:50:47.047Z,129.00
2023-06-21T08:51:47.003Z,127.00
2023-06-21T08:52:47.013Z,331.00
2023-06-21T08:53:46.981Z,636.00
2023-06-21T08:54:46.993Z,134.00
2023-06-21T08:55:47.060Z,126.00
2023-06-21T08:56:46.980Z,128.00
2023-06-21T08:57:46.970Z,139.00
2023-06-21T08:58:46.934Z,169.00
2023-06-21T08:59:46.940Z,169.00
2023-06-21T09:00:46.908Z,524.00
2023-06-21T09:01:47.094Z,482.00
2023-06-21T09:02:47.072Z,422.00
2023-06-21T09:03:47.142Z,399.00
2023-06-21T09:04:47.556Z,442.00
2023-06-21T09:05:46.850Z,575.00
2023-06-21T09:06:46.807Z,1549.00
2023-06-21T09:07:46.797Z,152.00
2023-06-21T09:08:46.868Z,175.00
2023-06-21T09:09:46.804Z,260.00
2023-06-21T09:10:46.764Z,454.00
2023-06-21T09:11:46.747Z,600.00
2023-06-21T09:12:47.797Z,560.00
2023-06-21T09:13:46.787Z,556.00
2023-06-21T09:14:46.702Z,591.00
2023-06-21T09:15:46.692Z,614.00
2023-06-21T09:16:46.680Z,609.00
2023-06-21T09:17:46.713Z,1243.00
2023-06-21T09:18:46.695Z,234.00
2023-06-21T09:19:46.645Z,179.00
2023-06-21T09:20:46.672Z,152.00
2023-06-21T09:21:46.618Z,156.00
2023-06-21T09:22:46.629Z,138.00
2023-06-21T09:23:46.608Z,150.00
2023-06-21T09:24:46.586Z,195.00
2023-06-21T09:25:46.588Z,665.00
2023-06-21T09:26:46.569Z,667.00
2023-06-21T09:27:46.649Z,1826.00
2023-06-21T09:28:46.627Z,199.00
2023-06-21T09:29:46.615Z,624.00
2023-06-21T09:30:46.799Z,629.00
2023-06-21T09:31:46.549Z,659.00
2023-06-21T09:32:46.668Z,699.00
2023-06-21T09:33:46.639Z,628.00
2023-06-21T09:34:46.467Z,564.00
2023-06-21T09:35:46.696Z,518.00
2023-06-21T09:36:46.520Z,435.00
2023-06-21T09:37:47.814Z,295.00
2023-06-21T09:38:46.403Z,181.00
2023-06-21T09:39:46.389Z,194.00
2023-06-21T09:40:46.395Z,617.00
2023-06-21T09:41:46.378Z,1065.00
2023-06-21T09:42:46.347Z,354.00
2023-06-21T09:43:46.338Z,156.00
2023-06-21T09:44:46.332Z,148.00
2023-06-21T09:45:46.325Z,162.00
2023-06-21T09:46:46.303Z,166.00
2023-06-21T09:47:46.495Z,147.00
2023-06-21T09:48:48.864Z,146.00
2023-06-21T09:49:46.274Z,155.00
2023-06-21T09:50:46.297Z,161.00
2023-06-21T09:51:46.253Z,156.00
2023-06-21T09:52:46.247Z,697.00
2023-06-21T09:53:46.205Z,654.00
2023-06-21T09:54:48.397Z,510.00
2023-06-21T09:55:46.212Z,483.00
2023-06-21T09:56:46.179Z,634.00
2023-06-21T09:57:46.184Z,611.00
2023-06-21T09:58:46.162Z,592.00
2023-06-21T09:59:46.170Z,1424.00
2023-06-21T10:00:46.172Z,234.00
2023-06-21T10:01:46.274Z,300.00
2023-06-21T10:02:46.140Z,740.00
2023-06-21T10:03:46.303Z,725.00
2023-06-21T10:04:46.093Z,668.00
2023-06-21T10:05:46.053Z,602.00
2023-06-21T10:06:46.083Z,520.00
2023-06-21T10:07:46.053Z,379.00
2023-06-21T10:08:46.060Z,706.00
2023-06-21T10:09:46.028Z,676.00
2023-06-21T10:10:45.987Z,1009.00
2023-06-21T10:11:45.996Z,290.00
2023-06-21T10:12:45.958Z,226.00
2023-06-21T10:13:45.974Z,178.00
2023-06-21T10:14:45.971Z,169.00
2023-06-21T10:15:45.952Z,191.00
2023-06-21T10:16:45.919Z,660.00
2023-06-21T10:17:52.067Z,679.00
2023-06-21T10:18:45.918Z,721.00
2023-06-21T10:19:46.665Z,673.00
2023-06-21T10:20:45.874Z,597.00
2023-06-21T10:21:45.871Z,682.00
2023-06-21T10:22:45.835Z,755.00
2023-06-21T10:23:45.857Z,786.00
2023-06-21T10:24:45.827Z,787.00
2023-06-21T10:25:45.812Z,1251.00
2023-06-21T10:26:45.794Z,346.00
2023-06-21T10:27:45.801Z,252.00
2023-06-21T10:28:45.772Z,205.00
2023-06-21T10:29:45.765Z,215.00
2023-06-21T10:30:45.739Z,223.00
2023-06-21T10:31:47.594Z,632.00
2023-06-21T10:32:45.777Z,1351.00
2023-06-21T10:33:45.693Z,341.00
2023-06-21T10:34:45.701Z,485.00
2023-06-21T10:35:45.667Z,486.00
2023-06-21T10:36:45.681Z,468.00
2023-06-21T10:37:45.683Z,564.00
2023-06-21T10:38:45.666Z,816.00
2023-06-21T10:39:47.123Z,828.00
2023-06-21T10:40:45.634Z,850.00
2023-06-21T10:41:45.623Z,863.00
2023-06-21T10:42:45.623Z,872.00
2023-06-21T10:43:45.583Z,867.00
2023-06-21T10:44:45.570Z,2492.00
2023-06-21T10:45:45.622Z,279.00
2023-06-21T10:46:45.548Z,203.00
2023-06-21T10:47:45.553Z,181.00
2023-06-21T10:48:45.516Z,158.00
2023-06-21T10:49:45.517Z,147.00
2023-06-21T10:50:45.491Z,145.00
2023-06-21T10:51:45.540Z,153.00
2023-06-21T10:52:45.476Z,164.00
2023-06-21T10:53:45.462Z,192.00
2023-06-21T10:54:45.454Z,1034.00
2023-06-21T10:55:45.501Z,2650.00
2023-06-21T10:56:45.430Z,979.00
2023-06-21T10:57:45.409Z,232.00
2023-06-21T10:58:46.066Z,203.00
2023-06-21T10:59:45.429Z,1082.00
2023-06-21T11:00:45.403Z,1103.00
2023-06-21T11:01:45.462Z,1150.00
2023-06-21T11:02:45.415Z,3004.00
2023-06-21T11:03:45.347Z,194.00
2023-06-21T11:04:53.536Z,270.00
2023-06-21T11:05:45.330Z,509.00
2023-06-21T11:06:45.346Z,667.00
2023-06-21T11:07:45.306Z,639.00
2023-06-21T11:08:45.323Z,659.00
2023-06-21T11:09:45.313Z,692.00
2023-06-21T11:10:45.258Z,793.00
2023-06-21T11:11:45.238Z,925.00
2023-06-21T11:12:45.239Z,895.00
2023-06-21T11:13:45.206Z,917.00
2023-06-21T11:14:45.217Z,908.00
2023-06-21T11:15:45.203Z,953.00
2023-06-21T11:16:45.168Z,1062.00
2023-06-21T11:17:45.301Z,1033.00
2023-06-21T11:18:45.164Z,1062.00
2023-06-21T11:19:45.165Z,1076.00
2023-06-21T11:20:45.120Z,1050.00
2023-06-21T11:21:45.103Z,950.00
2023-06-21T11:22:45.098Z,884.00
2023-06-21T11:23:45.087Z,956.00
2023-06-21T11:24:45.116Z,944.00
2023-06-21T11:25:45.061Z,892.00
2023-06-21T11:26:45.036Z,933.00
2023-06-21T11:27:45.040Z,1515.00
2023-06-21T11:28:45.500Z,2044.00
2023-06-21T11:29:45.033Z,673.00
2023-06-21T11:30:45.001Z,2030.00
2023-06-21T11:31:45.080Z,233.00
2023-06-21T11:32:45.033Z,185.00
2023-06-21T11:33:44.984Z,175.00
2023-06-21T11:34:44.933Z,175.00
2023-06-21T11:35:44.927Z,191.00
2023-06-21T11:36:44.908Z,192.00
2023-06-21T11:37:44.927Z,421.00
2023-06-21T11:38:44.894Z,557.00
2023-06-21T11:39:44.894Z,245.00
2023-06-21T11:40:44.893Z,237.00
2023-06-21T11:41:44.882Z,218.00
2023-06-21T11:42:44.869Z,222.00
2023-06-21T11:43:44.863Z,308.00
2023-06-21T11:44:44.816Z,366.00
2023-06-21T11:45:46.028Z,377.00
2023-06-21T11:46:44.816Z,476.00
2023-06-21T11:47:45.232Z,428.00
2023-06-21T11:48:44.773Z,401.00
2023-06-21T11:49:44.747Z,282.00
2023-06-21T11:50:44.757Z,311.00
2023-06-21T11:51:44.723Z,351.00
2023-06-21T11:52:44.757Z,382.00
2023-06-21T11:53:44.702Z,356.00
2023-06-21T11:54:44.680Z,355.00
2023-06-21T11:55:44.671Z,357.00
2023-06-21T11:56:44.696Z,339.00
2023-06-21T11:57:44.786Z,328.00
2023-06-21T11:58:44.645Z,298.00
2023-06-21T11:59:44.620Z,313.00
2023-06-21T12:00:44.630Z,321.00
2023-06-21T12:01:44.633Z,351.00
2023-06-21T12:02:44.652Z,381.00
2023-06-21T12:03:44.772Z,374.00
2023-06-21T12:04:44.647Z,364.00
2023-06-21T12:05:44.544Z,356.00
2023-06-21T12:06:44.577Z,362.00
2023-06-21T12:07:44.537Z,362.00
2023-06-21T12:08:44.500Z,397.00
2023-06-21T12:09:44.892Z,250.00
2023-06-21T12:10:44.525Z,318.00
2023-06-21T12:11:44.500Z,333.00
2023-06-21T12:12:44.515Z,306.00
2023-06-21T12:13:44.446Z,332.00
2023-06-21T12:14:44.417Z,356.00
2023-06-21T12:15:44.465Z,353.00
2023-06-21T12:16:44.413Z,476.00
2023-06-21T12:17:44.402Z,250.00
2023-06-21T12:18:44.363Z,338.00
2023-06-21T12:19:44.389Z,322.00
2023-06-21T12:20:44.368Z,269.00
2023-06-21T12:21:44.395Z,269.00
2023-06-21T12:22:44.317Z,321.00
2023-06-21T12:23:44.335Z,333.00
2023-06-21T12:24:44.317Z,332.00
2023-06-21T12:25:44.299Z,320.00
2023-06-21T12:26:44.326Z,332.00
2023-06-21T12:27:45.281Z,344.00
2023-06-21T12:28:44.268Z,340.00
2023-06-21T12:29:44.255Z,325.00
2023-06-21T12:30:44.254Z,333.00
2023-06-21T12:31:44.230Z,313.00
2023-06-21T12:32:44.292Z,294.00
2023-06-21T12:33:45.016Z,301.00
2023-06-21T12:34:44.212Z,297.00
2023-06-21T12:35:44.167Z,305.00
2023-06-21T12:36:44.145Z,307.00
2023-06-21T12:37:44.153Z,301.00
2023-06-21T12:38:44.140Z,309.00
2023-06-21T12:39:44.159Z,316.00
2023-06-21T12:40:44.099Z,308.00
2023-06-21T12:41:44.094Z,308.00
2023-06-21T12:42:44.088Z,308.00
2023-06-21T12:43:44.087Z,310.00
2023-06-21T12:44:44.047Z,304.00
2023-06-21T12:45:44.065Z,300.00
2023-06-21T12:46:44.041Z,286.00
2023-06-21T12:47:44.051Z,291.00